sensor_id;sensor_type;location;lat;lon;timestamp;temperature;humidity
435;DHT22;204;48.942;9.256;2023-01-06T00:01:16;11.40;1.00
435;DHT22;204;48.942;9.256;2023-01-06T00:03:42;11.40;1.00
435;DHT22;204;48.942;9.256;2023-01-06T00:06:10;11.30;1.00
435;DHT22;204;48.942;9.256;2023-01-06T00:08:36;11.30;1.00
435;DHT22;204;48.942;9.256;2023-01-06T00:11:07;11.30;1.00
435;DHT22;204;48.942;9.256;2023-01-06T00:13:33;11.30;1.00
435;DHT22;204;48.942;9.256;2023-01-06T00:16:03;11.20;1.00
435;DHT22;204;48.942;9.256;2023-01-06T00:18:29;11.20;1.00
435;DHT22;204;48.942;9.256;2023-01-06T00:20:57;11.20;1.00
435;DHT22;204;48.942;9.256;2023-01-06T00:23:23;11.20;1.00
435;DHT22;204;48.942;9.256;2023-01-06T00:25:52;11.20;1.00
435;DHT22;204;48.942;9.256;2023-01-06T00:28:18;11.20;1.00
435;DHT22;204;48.942;9.256;2023-01-06T00:30:43;11.20;1.00
435;DHT22;204;48.942;9.256;2023-01-06T00:33:09;11.20;1.00
435;DHT22;204;48.942;9.256;2023-01-06T00:35:35;11.10;1.00
435;DHT22;204;48.942;9.256;2023-01-06T00:38:00;11.10;1.00
435;DHT22;204;48.942;9.256;2023-01-06T00:40:26;11.00;1.00
435;DHT22;204;48.942;9.256;2023-01-06T00:42:52;11.00;1.00
435;DHT22;204;48.942;9.256;2023-01-06T00:45:17;11.00;1.00
435;DHT22;204;48.942;9.256;2023-01-06T00:47:43;10.90;1.00
435;DHT22;204;48.942;9.256;2023-01-06T00:50:09;10.90;1.00
435;DHT22;204;48.942;9.256;2023-01-06T00:52:35;10.80;1.00
435;DHT22;204;48.942;9.256;2023-01-06T00:55:00;10.70;1.00
435;DHT22;204;48.942;9.256;2023-01-06T00:57:26;10.70;1.00
435;DHT22;204;48.942;9.256;2023-01-06T00:59:52;10.70;1.00
435;DHT22;204;48.942;9.256;2023-01-06T01:02:17;10.60;1.00
435;DHT22;204;48.942;9.256;2023-01-06T01:04:43;10.50;1.00
435;DHT22;204;48.942;9.256;2023-01-06T01:07:09;10.50;1.00
435;DHT22;204;48.942;9.256;2023-01-06T01:09:35;10.50;1.00
435;DHT22;204;48.942;9.256;2023-01-06T01:12:01;10.40;1.00
435;DHT22;204;48.942;9.256;2023-01-06T01:14:50;10.40;1.00
435;DHT22;204;48.942;9.256;2023-01-06T01:17:25;10.40;1.00
435;DHT22;204;48.942;9.256;2023-01-06T01:19:52;10.40;1.00
435;DHT22;204;48.942;9.256;2023-01-06T01:22:20;10.30;1.00
435;DHT22;204;48.942;9.256;2023-01-06T01:24:46;10.30;1.00
435;DHT22;204;48.942;9.256;2023-01-06T01:27:12;10.30;1.00
435;DHT22;204;48.942;9.256;2023-01-06T01:29:37;10.30;1.00
435;DHT22;204;48.942;9.256;2023-01-06T01:32:03;10.30;1.00
435;DHT22;204;48.942;9.256;2023-01-06T01:34:29;10.40;1.00
435;DHT22;204;48.942;9.256;2023-01-06T01:36:55;10.40;1.00
435;DHT22;204;48.942;9.256;2023-01-06T01:39:24;10.40;1.00
435;DHT22;204;48.942;9.256;2023-01-06T01:41:50;10.40;1.00
435;DHT22;204;48.942;9.256;2023-01-06T01:47:16;10.50;1.00
435;DHT22;204;48.942;9.256;2023-01-06T01:49:43;10.50;1.00
435;DHT22;204;48.942;9.256;2023-01-06T01:52:11;10.50;1.00
435;DHT22;204;48.942;9.256;2023-01-06T01:54:37;10.60;1.00
435;DHT22;204;48.942;9.256;2023-01-06T01:57:09;10.60;1.00
435;DHT22;204;48.942;9.256;2023-01-06T01:59:36;10.60;1.00
435;DHT22;204;48.942;9.256;2023-01-06T02:02:03;10.60;1.00
435;DHT22;204;48.942;9.256;2023-01-06T02:04:30;10.60;1.00
435;DHT22;204;48.942;9.256;2023-01-06T02:06:57;10.60;1.00
435;DHT22;204;48.942;9.256;2023-01-06T02:11:52;10.50;1.00
435;DHT22;204;48.942;9.256;2023-01-06T02:14:24;10.60;1.00
435;DHT22;204;48.942;9.256;2023-01-06T02:33:30;10.60;1.00
435;DHT22;204;48.942;9.256;2023-01-06T02:41:26;10.70;1.00
435;DHT22;204;48.942;9.256;2023-01-06T02:52:12;10.60;1.00
435;DHT22;204;48.942;9.256;2023-01-06T02:57:31;10.60;1.00
435;DHT22;204;48.942;9.256;2023-01-06T03:00:02;10.60;1.00
435;DHT22;204;48.942;9.256;2023-01-06T03:02:31;10.50;1.00
435;DHT22;204;48.942;9.256;2023-01-06T03:05:00;10.50;1.00
435;DHT22;204;48.942;9.256;2023-01-06T03:07:27;10.50;1.00
435;DHT22;204;48.942;9.256;2023-01-06T03:09:54;10.50;1.00
435;DHT22;204;48.942;9.256;2023-01-06T03:12:34;10.50;1.00
435;DHT22;204;48.942;9.256;2023-01-06T03:15:01;10.50;1.00
435;DHT22;204;48.942;9.256;2023-01-06T03:17:27;10.50;1.00
435;DHT22;204;48.942;9.256;2023-01-06T03:19:53;10.40;1.00
435;DHT22;204;48.942;9.256;2023-01-06T03:22:19;10.40;1.00
435;DHT22;204;48.942;9.256;2023-01-06T03:24:45;10.40;1.00
435;DHT22;204;48.942;9.256;2023-01-06T03:27:11;10.40;1.00
435;DHT22;204;48.942;9.256;2023-01-06T03:29:37;10.30;1.00
435;DHT22;204;48.942;9.256;2023-01-06T03:32:21;10.30;1.00
435;DHT22;204;48.942;9.256;2023-01-06T03:44:03;10.30;1.00
435;DHT22;204;48.942;9.256;2023-01-06T03:46:51;10.30;1.00
435;DHT22;204;48.942;9.256;2023-01-06T03:49:32;10.40;1.00
435;DHT22;204;48.942;9.256;2023-01-06T03:52:04;10.50;1.00
435;DHT22;204;48.942;9.256;2023-01-06T03:57:19;10.50;1.00
435;DHT22;204;48.942;9.256;2023-01-06T03:59:53;10.50;1.00
435;DHT22;204;48.942;9.256;2023-01-06T04:02:21;10.50;1.00
435;DHT22;204;48.942;9.256;2023-01-06T04:05:10;10.40;1.00
435;DHT22;204;48.942;9.256;2023-01-06T04:07:37;10.40;1.00
435;DHT22;204;48.942;9.256;2023-01-06T04:10:03;10.40;1.00
435;DHT22;204;48.942;9.256;2023-01-06T04:12:29;10.40;1.00
435;DHT22;204;48.942;9.256;2023-01-06T04:15:17;10.40;1.00
435;DHT22;204;48.942;9.256;2023-01-06T04:17:44;10.40;1.00
435;DHT22;204;48.942;9.256;2023-01-06T04:20:15;10.40;1.00
435;DHT22;204;48.942;9.256;2023-01-06T04:22:41;10.40;1.00
435;DHT22;204;48.942;9.256;2023-01-06T04:25:07;10.40;1.00
435;DHT22;204;48.942;9.256;2023-01-06T04:27:33;10.30;1.00
435;DHT22;204;48.942;9.256;2023-01-06T04:29:58;10.40;1.00
435;DHT22;204;48.942;9.256;2023-01-06T04:32:24;10.50;1.00
435;DHT22;204;48.942;9.256;2023-01-06T04:34:49;10.50;1.00
435;DHT22;204;48.942;9.256;2023-01-06T04:37:15;10.50;1.00
435;DHT22;204;48.942;9.256;2023-01-06T04:39:41;10.50;1.00
435;DHT22;204;48.942;9.256;2023-01-06T04:42:06;10.60;1.00
435;DHT22;204;48.942;9.256;2023-01-06T04:44:32;10.60;1.00
435;DHT22;204;48.942;9.256;2023-01-06T04:46:57;10.70;1.00
435;DHT22;204;48.942;9.256;2023-01-06T04:49:23;10.70;1.00
435;DHT22;204;48.942;9.256;2023-01-06T04:51:49;10.70;1.00
435;DHT22;204;48.942;9.256;2023-01-06T04:54:14;10.70;1.00
435;DHT22;204;48.942;9.256;2023-01-06T04:56:40;10.70;1.00
435;DHT22;204;48.942;9.256;2023-01-06T04:59:05;10.70;1.00
435;DHT22;204;48.942;9.256;2023-01-06T05:01:31;10.70;1.00
435;DHT22;204;48.942;9.256;2023-01-06T05:03:57;10.70;1.00
435;DHT22;204;48.942;9.256;2023-01-06T05:06:22;10.70;1.00
435;DHT22;204;48.942;9.256;2023-01-06T05:08:48;10.70;1.00
435;DHT22;204;48.942;9.256;2023-01-06T05:11:17;10.70;1.00
435;DHT22;204;48.942;9.256;2023-01-06T05:13:43;10.60;1.00
435;DHT22;204;48.942;9.256;2023-01-06T05:16:11;10.70;1.00
435;DHT22;204;48.942;9.256;2023-01-06T05:18:37;10.70;1.00
435;DHT22;204;48.942;9.256;2023-01-06T05:21:03;10.60;1.00
435;DHT22;204;48.942;9.256;2023-01-06T05:23:29;10.50;1.00
435;DHT22;204;48.942;9.256;2023-01-06T05:25:54;10.50;1.00
435;DHT22;204;48.942;9.256;2023-01-06T05:28:20;10.50;1.00
435;DHT22;204;48.942;9.256;2023-01-06T05:30:46;10.40;1.00
435;DHT22;204;48.942;9.256;2023-01-06T05:33:12;10.50;1.00
435;DHT22;204;48.942;9.256;2023-01-06T05:35:38;10.50;1.00
435;DHT22;204;48.942;9.256;2023-01-06T05:38:04;10.40;1.00
435;DHT22;204;48.942;9.256;2023-01-06T05:40:30;10.40;1.00
435;DHT22;204;48.942;9.256;2023-01-06T05:42:56;10.50;1.00
435;DHT22;204;48.942;9.256;2023-01-06T05:45:23;10.50;1.00
435;DHT22;204;48.942;9.256;2023-01-06T05:47:49;10.50;1.00
435;DHT22;204;48.942;9.256;2023-01-06T05:50:15;10.50;1.00
435;DHT22;204;48.942;9.256;2023-01-06T05:52:40;10.50;1.00
435;DHT22;204;48.942;9.256;2023-01-06T05:55:07;10.50;1.00
435;DHT22;204;48.942;9.256;2023-01-06T05:57:33;10.50;1.00
435;DHT22;204;48.942;9.256;2023-01-06T05:59:59;10.50;1.00
435;DHT22;204;48.942;9.256;2023-01-06T06:02:24;10.40;1.00
435;DHT22;204;48.942;9.256;2023-01-06T06:04:50;10.40;1.00
435;DHT22;204;48.942;9.256;2023-01-06T06:07:16;10.40;1.00
435;DHT22;204;48.942;9.256;2023-01-06T06:09:41;10.40;1.00
435;DHT22;204;48.942;9.256;2023-01-06T06:12:07;10.50;1.00
435;DHT22;204;48.942;9.256;2023-01-06T06:14:32;10.50;1.00
435;DHT22;204;48.942;9.256;2023-01-06T06:16:58;10.50;1.00
435;DHT22;204;48.942;9.256;2023-01-06T06:19:24;10.60;1.00
435;DHT22;204;48.942;9.256;2023-01-06T06:21:49;10.60;1.00
435;DHT22;204;48.942;9.256;2023-01-06T06:24:16;10.70;1.00
435;DHT22;204;48.942;9.256;2023-01-06T06:26:42;10.80;1.00
435;DHT22;204;48.942;9.256;2023-01-06T06:29:07;10.80;1.00
435;DHT22;204;48.942;9.256;2023-01-06T06:31:33;10.80;1.00
435;DHT22;204;48.942;9.256;2023-01-06T06:34:00;10.80;1.00
435;DHT22;204;48.942;9.256;2023-01-06T06:36:27;10.90;1.00
435;DHT22;204;48.942;9.256;2023-01-06T06:38:53;10.90;1.00
435;DHT22;204;48.942;9.256;2023-01-06T06:41:20;10.90;1.00
435;DHT22;204;48.942;9.256;2023-01-06T06:43:47;10.90;1.00
435;DHT22;204;48.942;9.256;2023-01-06T06:46:13;11.00;1.00
435;DHT22;204;48.942;9.256;2023-01-06T06:48:39;11.00;1.00
435;DHT22;204;48.942;9.256;2023-01-06T06:51:06;11.00;1.00
435;DHT22;204;48.942;9.256;2023-01-06T06:53:32;11.00;1.00
435;DHT22;204;48.942;9.256;2023-01-06T06:55:59;11.00;1.00
435;DHT22;204;48.942;9.256;2023-01-06T06:58:25;11.00;1.00
435;DHT22;204;48.942;9.256;2023-01-06T07:00:51;11.00;1.00
435;DHT22;204;48.942;9.256;2023-01-06T07:03:16;11.00;1.00
435;DHT22;204;48.942;9.256;2023-01-06T07:05:43;11.00;1.00
435;DHT22;204;48.942;9.256;2023-01-06T07:08:10;11.00;1.00
435;DHT22;204;48.942;9.256;2023-01-06T07:10:36;11.00;1.00
435;DHT22;204;48.942;9.256;2023-01-06T07:13:01;11.00;1.00
435;DHT22;204;48.942;9.256;2023-01-06T07:15:27;11.00;1.00
435;DHT22;204;48.942;9.256;2023-01-06T07:17:53;11.10;1.00
435;DHT22;204;48.942;9.256;2023-01-06T07:20:19;11.10;1.00
435;DHT22;204;48.942;9.256;2023-01-06T07:22:44;11.00;1.00
435;DHT22;204;48.942;9.256;2023-01-06T07:25:10;10.90;1.00
435;DHT22;204;48.942;9.256;2023-01-06T07:27:36;10.90;1.00
435;DHT22;204;48.942;9.256;2023-01-06T07:30:03;10.90;1.00
435;DHT22;204;48.942;9.256;2023-01-06T07:32:29;10.90;1.00
435;DHT22;204;48.942;9.256;2023-01-06T07:34:54;10.90;1.00
435;DHT22;204;48.942;9.256;2023-01-06T07:37:20;10.90;1.00
435;DHT22;204;48.942;9.256;2023-01-06T07:39:46;10.90;1.00
435;DHT22;204;48.942;9.256;2023-01-06T07:42:11;11.00;1.00
435;DHT22;204;48.942;9.256;2023-01-06T07:44:37;11.00;1.00
435;DHT22;204;48.942;9.256;2023-01-06T07:47:03;11.00;1.00
435;DHT22;204;48.942;9.256;2023-01-06T07:49:28;11.10;1.00
435;DHT22;204;48.942;9.256;2023-01-06T07:51:54;11.10;1.00
435;DHT22;204;48.942;9.256;2023-01-06T07:54:20;11.10;1.00
435;DHT22;204;48.942;9.256;2023-01-06T07:56:45;11.00;1.00
435;DHT22;204;48.942;9.256;2023-01-06T07:59:11;10.90;1.00
435;DHT22;204;48.942;9.256;2023-01-06T08:01:37;10.80;1.00
435;DHT22;204;48.942;9.256;2023-01-06T08:04:02;10.70;1.00
435;DHT22;204;48.942;9.256;2023-01-06T08:06:28;10.60;1.00
435;DHT22;204;48.942;9.256;2023-01-06T08:08:54;10.60;1.00
435;DHT22;204;48.942;9.256;2023-01-06T08:11:19;10.60;1.00
435;DHT22;204;48.942;9.256;2023-01-06T08:13:45;10.60;1.00
435;DHT22;204;48.942;9.256;2023-01-06T08:16:11;10.50;1.00
435;DHT22;204;48.942;9.256;2023-01-06T08:18:38;10.60;1.00
435;DHT22;204;48.942;9.256;2023-01-06T08:21:08;10.60;1.00
435;DHT22;204;48.942;9.256;2023-01-06T08:23:35;10.60;1.00
435;DHT22;204;48.942;9.256;2023-01-06T08:26:06;10.70;1.00
435;DHT22;204;48.942;9.256;2023-01-06T08:28:31;10.70;1.00
435;DHT22;204;48.942;9.256;2023-01-06T08:30:58;10.80;1.00
435;DHT22;204;48.942;9.256;2023-01-06T08:33:23;10.80;1.00
435;DHT22;204;48.942;9.256;2023-01-06T08:35:51;10.90;1.00
435;DHT22;204;48.942;9.256;2023-01-06T08:38:17;11.00;1.00
435;DHT22;204;48.942;9.256;2023-01-06T08:40:43;11.00;1.00
435;DHT22;204;48.942;9.256;2023-01-06T08:43:09;11.10;1.00
435;DHT22;204;48.942;9.256;2023-01-06T08:45:38;11.10;1.00
435;DHT22;204;48.942;9.256;2023-01-06T08:48:04;11.10;1.00
435;DHT22;204;48.942;9.256;2023-01-06T08:50:30;11.20;1.00
435;DHT22;204;48.942;9.256;2023-01-06T08:52:55;11.30;1.00
435;DHT22;204;48.942;9.256;2023-01-06T08:55:21;11.30;1.00
435;DHT22;204;48.942;9.256;2023-01-06T08:57:46;11.40;1.00
435;DHT22;204;48.942;9.256;2023-01-06T09:00:13;11.60;1.00
435;DHT22;204;48.942;9.256;2023-01-06T09:02:38;11.60;1.00
435;DHT22;204;48.942;9.256;2023-01-06T09:05:04;11.80;1.00
435;DHT22;204;48.942;9.256;2023-01-06T09:07:30;11.80;1.00
435;DHT22;204;48.942;9.256;2023-01-06T09:09:56;11.90;1.00
435;DHT22;204;48.942;9.256;2023-01-06T09:12:21;12.00;1.00
435;DHT22;204;48.942;9.256;2023-01-06T09:14:47;12.10;1.00
435;DHT22;204;48.942;9.256;2023-01-06T09:17:12;12.30;1.00
435;DHT22;204;48.942;9.256;2023-01-06T09:19:38;12.40;1.00
435;DHT22;204;48.942;9.256;2023-01-06T09:22:04;12.50;1.00
435;DHT22;204;48.942;9.256;2023-01-06T09:24:29;12.60;1.00
435;DHT22;204;48.942;9.256;2023-01-06T09:26:55;12.80;1.00
435;DHT22;204;48.942;9.256;2023-01-06T09:29:21;12.90;1.00
435;DHT22;204;48.942;9.256;2023-01-06T09:31:46;13.00;1.00
435;DHT22;204;48.942;9.256;2023-01-06T09:34:13;13.20;1.00
435;DHT22;204;48.942;9.256;2023-01-06T09:36:39;13.30;1.00
435;DHT22;204;48.942;9.256;2023-01-06T09:39:05;13.50;1.00
435;DHT22;204;48.942;9.256;2023-01-06T09:44:53;13.70;1.00
435;DHT22;204;48.942;9.256;2023-01-06T09:47:25;13.90;1.00
435;DHT22;204;48.942;9.256;2023-01-06T09:50:02;14.00;1.00
435;DHT22;204;48.942;9.256;2023-01-06T09:52:43;14.10;1.00
435;DHT22;204;48.942;9.256;2023-01-06T09:55:18;14.20;1.00
435;DHT22;204;48.942;9.256;2023-01-06T09:57:51;14.20;1.00
435;DHT22;204;48.942;9.256;2023-01-06T10:02:59;14.10;1.00
435;DHT22;204;48.942;9.256;2023-01-06T10:05:44;13.90;1.00
435;DHT22;204;48.942;9.256;2023-01-06T10:11:25;13.70;1.00
435;DHT22;204;48.942;9.256;2023-01-06T10:14:33;13.60;1.00
435;DHT22;204;48.942;9.256;2023-01-06T10:20:21;13.30;1.00
435;DHT22;204;48.942;9.256;2023-01-06T10:25:40;13.40;1.00
435;DHT22;204;48.942;9.256;2023-01-06T10:28:26;13.40;1.00
435;DHT22;204;48.942;9.256;2023-01-06T10:30:57;13.50;1.00
435;DHT22;204;48.942;9.256;2023-01-06T10:33:32;13.50;1.00
435;DHT22;204;48.942;9.256;2023-01-06T10:36:02;13.50;1.00
435;DHT22;204;48.942;9.256;2023-01-06T10:38:41;13.50;1.00
435;DHT22;204;48.942;9.256;2023-01-06T10:43:57;13.40;1.00
435;DHT22;204;48.942;9.256;2023-01-06T10:46:27;13.40;1.00
435;DHT22;204;48.942;9.256;2023-01-06T10:48:54;13.30;1.00
435;DHT22;204;48.942;9.256;2023-01-06T10:53:48;13.30;1.00
435;DHT22;204;48.942;9.256;2023-01-06T10:56:15;13.40;1.00
435;DHT22;204;48.942;9.256;2023-01-06T10:58:49;13.50;1.00
435;DHT22;204;48.942;9.256;2023-01-06T11:01:26;13.50;1.00
435;DHT22;204;48.942;9.256;2023-01-06T11:04:11;13.50;1.00
435;DHT22;204;48.942;9.256;2023-01-06T11:06:43;13.50;1.00
435;DHT22;204;48.942;9.256;2023-01-06T11:11:56;13.40;1.00
435;DHT22;204;48.942;9.256;2023-01-06T11:14:27;13.40;1.00
435;DHT22;204;48.942;9.256;2023-01-06T11:17:03;13.30;1.00
435;DHT22;204;48.942;9.256;2023-01-06T11:19:46;13.40;1.00
435;DHT22;204;48.942;9.256;2023-01-06T11:22:32;13.50;1.00
435;DHT22;204;48.942;9.256;2023-01-06T11:24:59;13.50;1.00
435;DHT22;204;48.942;9.256;2023-01-06T11:27:25;13.60;1.00
435;DHT22;204;48.942;9.256;2023-01-06T11:29:50;13.70;1.00
435;DHT22;204;48.942;9.256;2023-01-06T11:32:20;13.80;1.00
435;DHT22;204;48.942;9.256;2023-01-06T11:35:05;13.90;1.00
435;DHT22;204;48.942;9.256;2023-01-06T11:37:42;14.00;1.00
435;DHT22;204;48.942;9.256;2023-01-06T11:42:58;14.10;1.00
435;DHT22;204;48.942;9.256;2023-01-06T11:48:18;14.10;1.00
435;DHT22;204;48.942;9.256;2023-01-06T11:51:02;14.10;1.00
435;DHT22;204;48.942;9.256;2023-01-06T11:53:28;14.10;1.00
435;DHT22;204;48.942;9.256;2023-01-06T11:56:02;14.10;1.00
435;DHT22;204;48.942;9.256;2023-01-06T12:01:16;14.10;1.00
435;DHT22;204;48.942;9.256;2023-01-06T12:03:45;14.00;1.00
435;DHT22;204;48.942;9.256;2023-01-06T12:09:00;13.90;1.00
435;DHT22;204;48.942;9.256;2023-01-06T12:11:50;14.00;1.00
435;DHT22;204;48.942;9.256;2023-01-06T12:14:24;13.90;1.00
435;DHT22;204;48.942;9.256;2023-01-06T12:24:59;13.80;1.00
435;DHT22;204;48.942;9.256;2023-01-06T12:27:39;13.80;1.00
435;DHT22;204;48.942;9.256;2023-01-06T12:30:47;13.90;1.00
435;DHT22;204;48.942;9.256;2023-01-06T12:33:35;13.90;1.00
435;DHT22;204;48.942;9.256;2023-01-06T12:36:09;14.00;1.00
435;DHT22;204;48.942;9.256;2023-01-06T12:38:56;13.90;1.00
435;DHT22;204;48.942;9.256;2023-01-06T12:41:32;14.00;1.00
435;DHT22;204;48.942;9.256;2023-01-06T12:44:05;14.10;1.00
435;DHT22;204;48.942;9.256;2023-01-06T12:46:39;14.10;1.00
435;DHT22;204;48.942;9.256;2023-01-06T12:49:19;14.10;1.00
435;DHT22;204;48.942;9.256;2023-01-06T12:51:51;14.10;1.00
435;DHT22;204;48.942;9.256;2023-01-06T12:54:32;14.00;1.00
435;DHT22;204;48.942;9.256;2023-01-06T12:57:08;14.00;1.00
435;DHT22;204;48.942;9.256;2023-01-06T13:10:34;13.80;1.00
435;DHT22;204;48.942;9.256;2023-01-06T13:15:48;13.50;1.00
435;DHT22;204;48.942;9.256;2023-01-06T13:18:25;13.40;1.00
435;DHT22;204;48.942;9.256;2023-01-06T13:26:59;13.20;1.00
435;DHT22;204;48.942;9.256;2023-01-06T13:29:59;13.20;1.00
435;DHT22;204;48.942;9.256;2023-01-06T13:40:57;13.00;1.00
435;DHT22;204;48.942;9.256;2023-01-06T13:43:26;13.10;1.00
435;DHT22;204;48.942;9.256;2023-01-06T13:46:08;13.00;1.00
435;DHT22;204;48.942;9.256;2023-01-06T13:48:40;12.90;1.00
435;DHT22;204;48.942;9.256;2023-01-06T13:51:10;12.90;1.00
435;DHT22;204;48.942;9.256;2023-01-06T13:53:38;12.90;1.00
435;DHT22;204;48.942;9.256;2023-01-06T13:58:43;12.80;1.00
435;DHT22;204;48.942;9.256;2023-01-06T14:01:29;12.80;1.00
435;DHT22;204;48.942;9.256;2023-01-06T14:07:07;12.70;1.00
435;DHT22;204;48.942;9.256;2023-01-06T14:09:37;12.60;1.00
435;DHT22;204;48.942;9.256;2023-01-06T14:12:18;12.50;1.00
435;DHT22;204;48.942;9.256;2023-01-06T14:14:54;12.50;1.00
435;DHT22;204;48.942;9.256;2023-01-06T14:17:41;12.50;1.00
435;DHT22;204;48.942;9.256;2023-01-06T14:20:42;12.50;1.00
435;DHT22;204;48.942;9.256;2023-01-06T14:23:22;12.40;1.00
435;DHT22;204;48.942;9.256;2023-01-06T14:25:50;12.30;1.00
435;DHT22;204;48.942;9.256;2023-01-06T14:30:46;12.30;1.00
435;DHT22;204;48.942;9.256;2023-01-06T14:33:35;12.20;1.00
435;DHT22;204;48.942;9.256;2023-01-06T14:36:03;12.20;1.00
435;DHT22;204;48.942;9.256;2023-01-06T14:38:41;12.20;1.00
435;DHT22;204;48.942;9.256;2023-01-06T14:44:01;12.20;1.00
435;DHT22;204;48.942;9.256;2023-01-06T14:46:46;12.20;1.00
435;DHT22;204;48.942;9.256;2023-01-06T14:49:26;12.20;1.00
435;DHT22;204;48.942;9.256;2023-01-06T14:51:57;12.10;1.00
435;DHT22;204;48.942;9.256;2023-01-06T14:54:35;12.10;1.00
435;DHT22;204;48.942;9.256;2023-01-06T14:57:02;12.10;1.00
435;DHT22;204;48.942;9.256;2023-01-06T14:59:29;12.10;1.00
435;DHT22;204;48.942;9.256;2023-01-06T15:04:33;12.10;1.00
435;DHT22;204;48.942;9.256;2023-01-06T15:07:01;12.10;1.00
435;DHT22;204;48.942;9.256;2023-01-06T15:09:27;12.00;1.00
435;DHT22;204;48.942;9.256;2023-01-06T15:11:53;12.00;1.00
435;DHT22;204;48.942;9.256;2023-01-06T15:14:27;12.00;1.00
435;DHT22;204;48.942;9.256;2023-01-06T15:16:54;12.10;1.00
435;DHT22;204;48.942;9.256;2023-01-06T15:19:21;12.10;1.00
435;DHT22;204;48.942;9.256;2023-01-06T15:21:49;12.20;1.00
435;DHT22;204;48.942;9.256;2023-01-06T15:24:19;12.20;1.00
435;DHT22;204;48.942;9.256;2023-01-06T15:26:46;12.20;1.00
435;DHT22;204;48.942;9.256;2023-01-06T15:29:17;12.20;1.00
435;DHT22;204;48.942;9.256;2023-01-06T15:31:44;12.20;1.00
435;DHT22;204;48.942;9.256;2023-01-06T15:34:26;12.30;1.00
435;DHT22;204;48.942;9.256;2023-01-06T15:36:55;12.20;1.00
435;DHT22;204;48.942;9.256;2023-01-06T15:39:31;12.20;1.00
435;DHT22;204;48.942;9.256;2023-01-06T15:41:58;12.20;1.00
435;DHT22;204;48.942;9.256;2023-01-06T15:49:42;12.10;1.00
435;DHT22;204;48.942;9.256;2023-01-06T15:52:33;12.10;1.00
435;DHT22;204;48.942;9.256;2023-01-06T15:55:03;12.20;1.00
435;DHT22;204;48.942;9.256;2023-01-06T15:57:33;12.20;1.00
435;DHT22;204;48.942;9.256;2023-01-06T16:00:04;12.20;1.00
435;DHT22;204;48.942;9.256;2023-01-06T16:02:31;12.20;1.00
435;DHT22;204;48.942;9.256;2023-01-06T16:04:57;12.20;1.00
435;DHT22;204;48.942;9.256;2023-01-06T16:07:40;12.30;1.00
435;DHT22;204;48.942;9.256;2023-01-06T16:10:29;12.30;1.00
435;DHT22;204;48.942;9.256;2023-01-06T16:13:25;12.30;1.00
435;DHT22;204;48.942;9.256;2023-01-06T16:15:59;12.30;1.00
435;DHT22;204;48.942;9.256;2023-01-06T16:18:36;12.30;1.00
435;DHT22;204;48.942;9.256;2023-01-06T16:21:25;12.30;1.00
435;DHT22;204;48.942;9.256;2023-01-06T16:26:24;12.30;1.00
435;DHT22;204;48.942;9.256;2023-01-06T16:28:59;12.30;1.00
435;DHT22;204;48.942;9.256;2023-01-06T16:31:31;12.30;1.00
435;DHT22;204;48.942;9.256;2023-01-06T16:34:14;12.30;1.00
435;DHT22;204;48.942;9.256;2023-01-06T16:36:40;12.30;1.00
435;DHT22;204;48.942;9.256;2023-01-06T16:39:05;12.30;1.00
435;DHT22;204;48.942;9.256;2023-01-06T16:41:31;12.30;1.00
435;DHT22;204;48.942;9.256;2023-01-06T16:43:57;12.30;1.00
435;DHT22;204;48.942;9.256;2023-01-06T16:46:23;12.30;1.00
435;DHT22;204;48.942;9.256;2023-01-06T16:48:59;12.30;1.00
435;DHT22;204;48.942;9.256;2023-01-06T16:51:27;12.30;1.00
435;DHT22;204;48.942;9.256;2023-01-06T16:53:53;12.30;1.00
435;DHT22;204;48.942;9.256;2023-01-06T16:56:21;12.20;1.00
435;DHT22;204;48.942;9.256;2023-01-06T16:58:49;12.20;1.00
435;DHT22;204;48.942;9.256;2023-01-06T17:01:20;12.30;1.00
435;DHT22;204;48.942;9.256;2023-01-06T17:03:51;12.30;1.00
435;DHT22;204;48.942;9.256;2023-01-06T17:06:20;12.30;1.00
435;DHT22;204;48.942;9.256;2023-01-06T17:08:47;12.30;1.00
435;DHT22;204;48.942;9.256;2023-01-06T17:11:18;12.30;1.00
435;DHT22;204;48.942;9.256;2023-01-06T17:13:54;12.30;1.00
435;DHT22;204;48.942;9.256;2023-01-06T17:16:22;12.30;1.00
435;DHT22;204;48.942;9.256;2023-01-06T17:19:02;12.30;1.00
435;DHT22;204;48.942;9.256;2023-01-06T17:21:35;12.20;1.00
435;DHT22;204;48.942;9.256;2023-01-06T17:24:13;12.20;1.00
435;DHT22;204;48.942;9.256;2023-01-06T17:26:46;12.20;1.00
435;DHT22;204;48.942;9.256;2023-01-06T17:29:14;12.20;1.00
435;DHT22;204;48.942;9.256;2023-01-06T17:31:42;12.10;1.00
435;DHT22;204;48.942;9.256;2023-01-06T17:34:28;12.10;1.00
435;DHT22;204;48.942;9.256;2023-01-06T17:36:57;12.10;1.00
435;DHT22;204;48.942;9.256;2023-01-06T17:39:37;12.10;1.00
435;DHT22;204;48.942;9.256;2023-01-06T17:44:35;12.10;1.00
435;DHT22;204;48.942;9.256;2023-01-06T17:47:05;12.10;1.00
435;DHT22;204;48.942;9.256;2023-01-06T17:49:34;12.10;1.00
435;DHT22;204;48.942;9.256;2023-01-06T17:52:16;12.00;1.00
435;DHT22;204;48.942;9.256;2023-01-06T17:54:54;12.00;1.00
435;DHT22;204;48.942;9.256;2023-01-06T17:57:41;12.00;1.00
435;DHT22;204;48.942;9.256;2023-01-06T18:00:22;12.00;1.00
435;DHT22;204;48.942;9.256;2023-01-06T18:02:55;12.00;1.00
435;DHT22;204;48.942;9.256;2023-01-06T18:10:40;11.90;1.00
435;DHT22;204;48.942;9.256;2023-01-06T18:15:59;11.80;1.00
435;DHT22;204;48.942;9.256;2023-01-06T18:23:42;11.70;1.00
435;DHT22;204;48.942;9.256;2023-01-06T18:29:02;11.80;1.00
435;DHT22;204;48.942;9.256;2023-01-06T18:31:36;11.80;1.00
435;DHT22;204;48.942;9.256;2023-01-06T18:36:52;11.80;1.00
435;DHT22;204;48.942;9.256;2023-01-06T18:39:28;11.80;1.00
435;DHT22;204;48.942;9.256;2023-01-06T18:45:28;11.80;1.00
435;DHT22;204;48.942;9.256;2023-01-06T18:48:24;11.80;1.00
435;DHT22;204;48.942;9.256;2023-01-06T18:50:48;11.70;1.00
435;DHT22;204;48.942;9.256;2023-01-06T18:55:47;11.50;1.00
435;DHT22;204;48.942;9.256;2023-01-06T18:58:38;11.40;1.00
435;DHT22;204;48.942;9.256;2023-01-06T19:06:47;11.30;1.00
435;DHT22;204;48.942;9.256;2023-01-06T19:09:25;11.30;1.00
435;DHT22;204;48.942;9.256;2023-01-06T19:14:45;11.30;1.00
435;DHT22;204;48.942;9.256;2023-01-06T19:17:42;11.30;1.00
435;DHT22;204;48.942;9.256;2023-01-06T19:20:23;11.30;1.00
435;DHT22;204;48.942;9.256;2023-01-06T19:22:51;11.30;1.00
435;DHT22;204;48.942;9.256;2023-01-06T19:25:39;11.30;1.00
435;DHT22;204;48.942;9.256;2023-01-06T19:30:43;11.30;1.00
435;DHT22;204;48.942;9.256;2023-01-06T19:38:38;11.40;1.00
435;DHT22;204;48.942;9.256;2023-01-06T19:43:38;11.40;1.00
435;DHT22;204;48.942;9.256;2023-01-06T19:48:40;11.40;1.00
435;DHT22;204;48.942;9.256;2023-01-06T19:53:58;11.50;1.00
435;DHT22;204;48.942;9.256;2023-01-06T19:56:37;11.50;1.00
435;DHT22;204;48.942;9.256;2023-01-06T19:59:15;11.50;1.00
435;DHT22;204;48.942;9.256;2023-01-06T20:01:42;11.60;1.00
435;DHT22;204;48.942;9.256;2023-01-06T20:04:21;11.60;1.00
435;DHT22;204;48.942;9.256;2023-01-06T20:06:47;11.60;1.00
435;DHT22;204;48.942;9.256;2023-01-06T20:09:13;11.60;1.00
435;DHT22;204;48.942;9.256;2023-01-06T20:11:38;11.60;1.00
435;DHT22;204;48.942;9.256;2023-01-06T20:14:06;11.60;1.00
435;DHT22;204;48.942;9.256;2023-01-06T20:16:31;11.60;1.00
435;DHT22;204;48.942;9.256;2023-01-06T20:18:57;11.70;1.00
435;DHT22;204;48.942;9.256;2023-01-06T20:21:23;11.70;1.00
435;DHT22;204;48.942;9.256;2023-01-06T20:23:48;11.70;1.00
435;DHT22;204;48.942;9.256;2023-01-06T20:26:14;11.70;1.00